sensor_id;sensor_type;location;lat;lon;timestamp;P1;durP1;ratioP1;P2;durP2;ratioP2
50815;SDS011;39717;47.324;8.788;2022-08-26T00:00:50;6.87;;;6.20;;
50815;SDS011;39717;47.324;8.788;2022-08-26T00:03:17;7.33;;;6.67;;
50815;SDS011;39717;47.324;8.788;2022-08-26T00:05:44;7.07;;;6.37;;
50815;SDS011;39717;47.324;8.788;2022-08-26T00:08:11;8.80;;;7.97;;
50815;SDS011;39717;47.324;8.788;2022-08-26T00:10:39;8.13;;;7.33;;
50815;SDS011;39717;47.324;8.788;2022-08-26T00:13:07;8.27;;;7.47;;
50815;SDS011;39717;47.324;8.788;2022-08-26T00:15:35;9.13;;;7.80;;
50815;SDS011;39717;47.324;8.788;2022-08-26T00:18:02;9.03;;;7.90;;
50815;SDS011;39717;47.324;8.788;2022-08-26T00:20:29;8.57;;;7.77;;
50815;SDS011;39717;47.324;8.788;2022-08-26T00:22:56;8.50;;;7.70;;
50815;SDS011;39717;47.324;8.788;2022-08-26T00:25:23;8.73;;;7.87;;
50815;SDS011;39717;47.324;8.788;2022-08-26T00:27:49;8.10;;;7.30;;
50815;SDS011;39717;47.324;8.788;2022-08-26T00:30:17;7.67;;;6.97;;
50815;SDS011;39717;47.324;8.788;2022-08-26T00:32:52;8.37;;;7.57;;
50815;SDS011;39717;47.324;8.788;2022-08-26T00:35:18;10.03;;;8.70;;
50815;SDS011;39717;47.324;8.788;2022-08-26T00:37:45;8.93;;;7.87;;
50815;SDS011;39717;47.324;8.788;2022-08-26T00:40:12;9.30;;;8.40;;
50815;SDS011;39717;47.324;8.788;2022-08-26T00:42:41;11.07;;;8.17;;
50815;SDS011;39717;47.324;8.788;2022-08-26T00:45:07;9.63;;;7.53;;
50815;SDS011;39717;47.324;8.788;2022-08-26T00:47:34;9.70;;;8.70;;
50815;SDS011;39717;47.324;8.788;2022-08-26T00:50:09;9.73;;;7.73;;
50815;SDS011;39717;47.324;8.788;2022-08-26T00:52:39;9.17;;;8.30;;
50815;SDS011;39717;47.324;8.788;2022-08-26T00:55:52;8.80;;;7.37;;
50815;SDS011;39717;47.324;8.788;2022-08-26T00:57:52;8.87;;;7.97;;
50815;SDS011;39717;47.324;8.788;2022-08-26T01:00:21;9.80;;;7.63;;
50815;SDS011;39717;47.324;8.788;2022-08-26T01:02:49;8.23;;;7.43;;
50815;SDS011;39717;47.324;8.788;2022-08-26T01:05:17;8.40;;;7.60;;
50815;SDS011;39717;47.324;8.788;2022-08-26T01:07:44;8.40;;;7.70;;
50815;SDS011;39717;47.324;8.788;2022-08-26T01:10:12;8.20;;;6.97;;
50815;SDS011;39717;47.324;8.788;2022-08-26T01:12:43;8.47;;;7.20;;
50815;SDS011;39717;47.324;8.788;2022-08-26T01:15:21;7.23;;;6.53;;
50815;SDS011;39717;47.324;8.788;2022-08-26T01:17:49;8.30;;;7.27;;
50815;SDS011;39717;47.324;8.788;2022-08-26T01:20:36;7.47;;;6.70;;
50815;SDS011;39717;47.324;8.788;2022-08-26T01:23:25;6.87;;;6.27;;
50815;SDS011;39717;47.324;8.788;2022-08-26T01:25:58;7.17;;;6.47;;
50815;SDS011;39717;47.324;8.788;2022-08-26T01:28:29;8.13;;;7.43;;
50815;SDS011;39717;47.324;8.788;2022-08-26T01:30:57;8.50;;;7.70;;
50815;SDS011;39717;47.324;8.788;2022-08-26T01:33:27;7.73;;;7.03;;
50815;SDS011;39717;47.324;8.788;2022-08-26T01:36:02;8.57;;;7.77;;
50815;SDS011;39717;47.324;8.788;2022-08-26T01:38:28;8.27;;;7.50;;
50815;SDS011;39717;47.324;8.788;2022-08-26T01:40:54;7.77;;;7.07;;
50815;SDS011;39717;47.324;8.788;2022-08-26T01:43:22;7.87;;;7.07;;
50815;SDS011;39717;47.324;8.788;2022-08-26T01:45:50;7.13;;;6.47;;
50815;SDS011;39717;47.324;8.788;2022-08-26T01:48:20;8.10;;;7.37;;
50815;SDS011;39717;47.324;8.788;2022-08-26T01:50:49;7.87;;;7.07;;
50815;SDS011;39717;47.324;8.788;2022-08-26T01:53:17;7.50;;;6.90;;
50815;SDS011;39717;47.324;8.788;2022-08-26T01:55:45;7.53;;;6.93;;
50815;SDS011;39717;47.324;8.788;2022-08-26T01:58:16;8.33;;;7.60;;
50815;SDS011;39717;47.324;8.788;2022-08-26T02:00:46;8.17;;;7.47;;
50815;SDS011;39717;47.324;8.788;2022-08-26T02:03:13;7.73;;;7.03;;
50815;SDS011;39717;47.324;8.788;2022-08-26T02:05:41;8.30;;;7.60;;
50815;SDS011;39717;47.324;8.788;2022-08-26T02:08:17;8.00;;;7.20;;
50815;SDS011;39717;47.324;8.788;2022-08-26T02:10:47;7.73;;;7.03;;
50815;SDS011;39717;47.324;8.788;2022-08-26T02:13:12;7.53;;;6.87;;
50815;SDS011;39717;47.324;8.788;2022-08-26T02:15:40;8.47;;;7.60;;
50815;SDS011;39717;47.324;8.788;2022-08-26T02:18:08;8.23;;;7.03;;
50815;SDS011;39717;47.324;8.788;2022-08-26T02:20:35;7.30;;;6.60;;
50815;SDS011;39717;47.324;8.788;2022-08-26T02:23:02;7.57;;;6.87;;
50815;SDS011;39717;47.324;8.788;2022-08-26T02:28:16;8.10;;;7.40;;
50815;SDS011;39717;47.324;8.788;2022-08-26T02:30:42;10.40;;;7.40;;
50815;SDS011;39717;47.324;8.788;2022-08-26T02:33:09;7.93;;;7.23;;
50815;SDS011;39717;47.324;8.788;2022-08-26T02:35:35;8.00;;;7.30;;
50815;SDS011;39717;47.324;8.788;2022-08-26T02:38:04;7.57;;;6.90;;
50815;SDS011;39717;47.324;8.788;2022-08-26T02:40:33;8.53;;;7.73;;
50815;SDS011;39717;47.324;8.788;2022-08-26T02:43:00;7.47;;;6.87;;
50815;SDS011;39717;47.324;8.788;2022-08-26T02:45:26;8.13;;;7.33;;
50815;SDS011;39717;47.324;8.788;2022-08-26T02:47:53;8.40;;;7.70;;
50815;SDS011;39717;47.324;8.788;2022-08-26T02:50:21;7.67;;;7.03;;
50815;SDS011;39717;47.324;8.788;2022-08-26T02:52:46;10.07;;;7.33;;
50815;SDS011;39717;47.324;8.788;2022-08-26T02:55:13;7.90;;;7.10;;
50815;SDS011;39717;47.324;8.788;2022-08-26T02:57:39;7.57;;;6.90;;
50815;SDS011;39717;47.324;8.788;2022-08-26T03:00:06;7.40;;;6.70;;
50815;SDS011;39717;47.324;8.788;2022-08-26T03:02:33;7.97;;;7.17;;
50815;SDS011;39717;47.324;8.788;2022-08-26T03:04:59;7.50;;;6.80;;
50815;SDS011;39717;47.324;8.788;2022-08-26T03:07:25;7.90;;;7.10;;
50815;SDS011;39717;47.324;8.788;2022-08-26T03:09:51;11.90;;;8.23;;
50815;SDS011;39717;47.324;8.788;2022-08-26T03:12:17;9.47;;;7.93;;
50815;SDS011;39717;47.324;8.788;2022-08-26T03:14:45;9.97;;;8.00;;
50815;SDS011;39717;47.324;8.788;2022-08-26T03:17:12;7.70;;;7.00;;
50815;SDS011;39717;47.324;8.788;2022-08-26T03:19:37;9.30;;;7.93;;
50815;SDS011;39717;47.324;8.788;2022-08-26T03:22:03;7.63;;;6.93;;
50815;SDS011;39717;47.324;8.788;2022-08-26T03:24:29;6.10;;;5.50;;
50815;SDS011;39717;47.324;8.788;2022-08-26T03:26:56;6.17;;;5.43;;
50815;SDS011;39717;47.324;8.788;2022-08-26T03:29:22;8.17;;;7.47;;
50815;SDS011;39717;47.324;8.788;2022-08-26T03:32:07;6.83;;;6.03;;
50815;SDS011;39717;47.324;8.788;2022-08-26T03:34:33;8.07;;;7.37;;
50815;SDS011;39717;47.324;8.788;2022-08-26T03:36:59;9.07;;;7.30;;
50815;SDS011;39717;47.324;8.788;2022-08-26T03:39:25;8.17;;;7.47;;
50815;SDS011;39717;47.324;8.788;2022-08-26T03:41:52;8.03;;;7.33;;
50815;SDS011;39717;47.324;8.788;2022-08-26T03:44:19;8.20;;;7.40;;
50815;SDS011;39717;47.324;8.788;2022-08-26T03:46:45;7.70;;;7.00;;
50815;SDS011;39717;47.324;8.788;2022-08-26T03:49:11;7.70;;;6.90;;
50815;SDS011;39717;47.324;8.788;2022-08-26T03:51:37;7.30;;;6.60;;
50815;SDS011;39717;47.324;8.788;2022-08-26T03:54:03;7.13;;;6.43;;
50815;SDS011;39717;47.324;8.788;2022-08-26T03:56:30;6.73;;;6.13;;
50815;SDS011;39717;47.324;8.788;2022-08-26T03:58:58;7.03;;;6.43;;
50815;SDS011;39717;47.324;8.788;2022-08-26T04:01:25;8.07;;;6.47;;
50815;SDS011;39717;47.324;8.788;2022-08-26T04:03:53;7.10;;;6.40;;
50815;SDS011;39717;47.324;8.788;2022-08-26T04:06:22;7.07;;;6.47;;
50815;SDS011;39717;47.324;8.788;2022-08-26T04:08:55;7.47;;;6.63;;
50815;SDS011;39717;47.324;8.788;2022-08-26T04:11:25;7.03;;;6.43;;
50815;SDS011;39717;47.324;8.788;2022-08-26T04:13:54;7.47;;;6.77;;
50815;SDS011;39717;47.324;8.788;2022-08-26T04:16:20;8.90;;;7.07;;
50815;SDS011;39717;47.324;8.788;2022-08-26T04:18:46;7.37;;;6.33;;
50815;SDS011;39717;47.324;8.788;2022-08-26T04:21:12;7.97;;;7.27;;
50815;SDS011;39717;47.324;8.788;2022-08-26T04:23:38;7.73;;;7.03;;
50815;SDS011;39717;47.324;8.788;2022-08-26T04:26:04;7.40;;;6.63;;
50815;SDS011;39717;47.324;8.788;2022-08-26T04:28:30;7.83;;;7.07;;
50815;SDS011;39717;47.324;8.788;2022-08-26T04:30:56;7.50;;;6.77;;
50815;SDS011;39717;47.324;8.788;2022-08-26T04:33:22;8.07;;;7.23;;
50815;SDS011;39717;47.324;8.788;2022-08-26T04:35:48;7.23;;;6.57;;
50815;SDS011;39717;47.324;8.788;2022-08-26T04:38:15;7.50;;;6.83;;
50815;SDS011;39717;47.324;8.788;2022-08-26T04:40:44;8.23;;;7.53;;
50815;SDS011;39717;47.324;8.788;2022-08-26T04:43:11;9.30;;;7.30;;
50815;SDS011;39717;47.324;8.788;2022-08-26T04:45:38;9.43;;;7.13;;
50815;SDS011;39717;47.324;8.788;2022-08-26T04:48:05;8.87;;;7.97;;
50815;SDS011;39717;47.324;8.788;2022-08-26T04:50:33;7.43;;;6.83;;
50815;SDS011;39717;47.324;8.788;2022-08-26T04:52:59;9.23;;;8.33;;
50815;SDS011;39717;47.324;8.788;2022-08-26T04:55:25;8.47;;;7.73;;
50815;SDS011;39717;47.324;8.788;2022-08-26T04:57:51;8.30;;;7.60;;
50815;SDS011;39717;47.324;8.788;2022-08-26T05:00:18;9.10;;;8.20;;
50815;SDS011;39717;47.324;8.788;2022-08-26T05:02:44;8.40;;;7.70;;
50815;SDS011;39717;47.324;8.788;2022-08-26T05:05:10;9.07;;;7.57;;
50815;SDS011;39717;47.324;8.788;2022-08-26T05:07:38;8.17;;;7.43;;
50815;SDS011;39717;47.324;8.788;2022-08-26T05:10:06;9.07;;;8.23;;
50815;SDS011;39717;47.324;8.788;2022-08-26T05:12:33;8.67;;;7.97;;
50815;SDS011;39717;47.324;8.788;2022-08-26T05:14:59;9.23;;;8.40;;
50815;SDS011;39717;47.324;8.788;2022-08-26T05:17:25;8.90;;;8.00;;
50815;SDS011;39717;47.324;8.788;2022-08-26T05:19:51;9.03;;;8.13;;
50815;SDS011;39717;47.324;8.788;2022-08-26T05:22:17;10.53;;;8.37;;
50815;SDS011;39717;47.324;8.788;2022-08-26T05:24:44;10.03;;;8.90;;
50815;SDS011;39717;47.324;8.788;2022-08-26T05:27:11;12.37;;;10.47;;
50815;SDS011;39717;47.324;8.788;2022-08-26T05:29:38;10.73;;;9.37;;
50815;SDS011;39717;47.324;8.788;2022-08-26T05:32:05;9.73;;;8.50;;
50815;SDS011;39717;47.324;8.788;2022-08-26T05:34:31;9.87;;;8.87;;
50815;SDS011;39717;47.324;8.788;2022-08-26T05:36:57;9.27;;;8.40;;
50815;SDS011;39717;47.324;8.788;2022-08-26T05:39:23;9.87;;;8.50;;
50815;SDS011;39717;47.324;8.788;2022-08-26T05:41:49;9.00;;;8.20;;
50815;SDS011;39717;47.324;8.788;2022-08-26T05:44:15;10.93;;;9.30;;
50815;SDS011;39717;47.324;8.788;2022-08-26T05:46:43;11.77;;;9.83;;
50815;SDS011;39717;47.324;8.788;2022-08-26T05:49:10;12.63;;;9.63;;
50815;SDS011;39717;47.324;8.788;2022-08-26T05:51:38;12.43;;;9.87;;
50815;SDS011;39717;47.324;8.788;2022-08-26T05:54:05;12.63;;;9.53;;
50815;SDS011;39717;47.324;8.788;2022-08-26T05:56:31;16.20;;;10.23;;
50815;SDS011;39717;47.324;8.788;2022-08-26T05:58:57;12.93;;;9.37;;
50815;SDS011;39717;47.324;8.788;2022-08-26T06:01:26;15.07;;;10.90;;
50815;SDS011;39717;47.324;8.788;2022-08-26T06:03:55;14.60;;;10.10;;
50815;SDS011;39717;47.324;8.788;2022-08-26T06:06:23;11.53;;;10.27;;
50815;SDS011;39717;47.324;8.788;2022-08-26T06:08:54;11.13;;;9.90;;
50815;SDS011;39717;47.324;8.788;2022-08-26T06:11:23;12.87;;;10.23;;
50815;SDS011;39717;47.324;8.788;2022-08-26T06:13:51;11.83;;;9.83;;
50815;SDS011;39717;47.324;8.788;2022-08-26T06:16:19;11.37;;;10.17;;
50815;SDS011;39717;47.324;8.788;2022-08-26T06:18:47;16.30;;;10.90;;
50815;SDS011;39717;47.324;8.788;2022-08-26T06:21:22;12.00;;;10.47;;
50815;SDS011;39717;47.324;8.788;2022-08-26T06:23:52;14.27;;;10.23;;
50815;SDS011;39717;47.324;8.788;2022-08-26T06:26:38;10.77;;;9.43;;
50815;SDS011;39717;47.324;8.788;2022-08-26T06:29:06;14.40;;;9.50;;
50815;SDS011;39717;47.324;8.788;2022-08-26T06:31:33;10.30;;;9.07;;
50815;SDS011;39717;47.324;8.788;2022-08-26T06:34:00;11.77;;;9.83;;
50815;SDS011;39717;47.324;8.788;2022-08-26T06:36:28;10.33;;;9.33;;
50815;SDS011;39717;47.324;8.788;2022-08-26T06:38:58;9.97;;;9.00;;
50815;SDS011;39717;47.324;8.788;2022-08-26T06:41:26;9.97;;;9.07;;
50815;SDS011;39717;47.324;8.788;2022-08-26T06:43:52;9.60;;;8.70;;
50815;SDS011;39717;47.324;8.788;2022-08-26T06:46:19;10.80;;;9.03;;
50815;SDS011;39717;47.324;8.788;2022-08-26T06:48:46;9.10;;;8.20;;
50815;SDS011;39717;47.324;8.788;2022-08-26T06:51:23;11.67;;;7.50;;
50815;SDS011;39717;47.324;8.788;2022-08-26T06:53:54;8.87;;;7.20;;
50815;SDS011;39717;47.324;8.788;2022-08-26T06:56:24;9.60;;;7.33;;
50815;SDS011;39717;47.324;8.788;2022-08-26T06:58:59;8.33;;;7.17;;
50815;SDS011;39717;47.324;8.788;2022-08-26T07:01:28;7.73;;;6.87;;
50815;SDS011;39717;47.324;8.788;2022-08-26T07:03:58;9.80;;;7.13;;
50815;SDS011;39717;47.324;8.788;2022-08-26T07:06:27;7.60;;;6.90;;
50815;SDS011;39717;47.324;8.788;2022-08-26T07:08:58;7.27;;;6.67;;
50815;SDS011;39717;47.324;8.788;2022-08-26T07:11:26;8.20;;;6.60;;
50815;SDS011;39717;47.324;8.788;2022-08-26T07:13:52;8.23;;;7.10;;
50815;SDS011;39717;47.324;8.788;2022-08-26T07:16:19;8.33;;;7.53;;
50815;SDS011;39717;47.324;8.788;2022-08-26T07:18:46;7.90;;;7.00;;
50815;SDS011;39717;47.324;8.788;2022-08-26T07:21:13;8.87;;;6.67;;
50815;SDS011;39717;47.324;8.788;2022-08-26T07:23:41;8.37;;;6.30;;
50815;SDS011;39717;47.324;8.788;2022-08-26T07:26:19;7.90;;;7.03;;
50815;SDS011;39717;47.324;8.788;2022-08-26T07:28:47;7.90;;;7.10;;
50815;SDS011;39717;47.324;8.788;2022-08-26T07:31:17;8.53;;;6.57;;
50815;SDS011;39717;47.324;8.788;2022-08-26T07:33:45;7.30;;;6.70;;
50815;SDS011;39717;47.324;8.788;2022-08-26T07:36:11;8.60;;;7.03;;
50815;SDS011;39717;47.324;8.788;2022-08-26T07:38:40;6.83;;;6.20;;
50815;SDS011;39717;47.324;8.788;2022-08-26T07:41:08;7.80;;;6.90;;
50815;SDS011;39717;47.324;8.788;2022-08-26T07:43:37;6.67;;;6.17;;
50815;SDS011;39717;47.324;8.788;2022-08-26T07:46:04;9.37;;;6.93;;
50815;SDS011;39717;47.324;8.788;2022-08-26T07:48:31;7.27;;;6.63;;
50815;SDS011;39717;47.324;8.788;2022-08-26T07:50:58;7.40;;;6.70;;
50815;SDS011;39717;47.324;8.788;2022-08-26T07:53:25;6.20;;;5.60;;
50815;SDS011;39717;47.324;8.788;2022-08-26T07:55:51;8.00;;;6.50;;
50815;SDS011;39717;47.324;8.788;2022-08-26T07:58:17;7.57;;;6.07;;
50815;SDS011;39717;47.324;8.788;2022-08-26T08:00:43;7.83;;;6.10;;
50815;SDS011;39717;47.324;8.788;2022-08-26T08:03:10;7.83;;;5.90;;
50815;SDS011;39717;47.324;8.788;2022-08-26T08:05:36;6.80;;;6.03;;
50815;SDS011;39717;47.324;8.788;2022-08-26T08:08:04;6.50;;;5.80;;
50815;SDS011;39717;47.324;8.788;2022-08-26T08:10:31;6.03;;;5.43;;
50815;SDS011;39717;47.324;8.788;2022-08-26T08:12:58;9.80;;;5.63;;
50815;SDS011;39717;47.324;8.788;2022-08-26T08:15:25;6.07;;;5.10;;
50815;SDS011;39717;47.324;8.788;2022-08-26T08:17:53;6.60;;;6.00;;
50815;SDS011;39717;47.324;8.788;2022-08-26T08:20:20;6.03;;;5.53;;
50815;SDS011;39717;47.324;8.788;2022-08-26T08:22:47;9.17;;;6.20;;
50815;SDS011;39717;47.324;8.788;2022-08-26T08:25:14;7.13;;;5.43;;
50815;SDS011;39717;47.324;8.788;2022-08-26T08:27:40;11.07;;;5.97;;
50815;SDS011;39717;47.324;8.788;2022-08-26T08:30:08;6.90;;;6.20;;
50815;SDS011;39717;47.324;8.788;2022-08-26T08:32:35;6.40;;;5.83;;
50815;SDS011;39717;47.324;8.788;2022-08-26T08:35:02;7.97;;;7.20;;
50815;SDS011;39717;47.324;8.788;2022-08-26T08:37:29;7.30;;;6.60;;
50815;SDS011;39717;47.324;8.788;2022-08-26T08:39:55;6.53;;;6.03;;
50815;SDS011;39717;47.324;8.788;2022-08-26T08:42:26;6.73;;;6.13;;
50815;SDS011;39717;47.324;8.788;2022-08-26T08:44:56;8.03;;;6.93;;
50815;SDS011;39717;47.324;8.788;2022-08-26T08:49:53;6.50;;;5.67;;
50815;SDS011;39717;47.324;8.788;2022-08-26T08:52:28;7.53;;;6.17;;
50815;SDS011;39717;47.324;8.788;2022-08-26T08:54:55;7.20;;;6.53;;
50815;SDS011;39717;47.324;8.788;2022-08-26T08:59:53;7.00;;;6.33;;
50815;SDS011;39717;47.324;8.788;2022-08-26T09:02:26;6.97;;;6.27;;
50815;SDS011;39717;47.324;8.788;2022-08-26T09:07:31;7.60;;;6.90;;
50815;SDS011;39717;47.324;8.788;2022-08-26T09:10:03;7.67;;;6.87;;
50815;SDS011;39717;47.324;8.788;2022-08-26T09:12:32;6.70;;;6.00;;
50815;SDS011;39717;47.324;8.788;2022-08-26T09:20:06;6.83;;;6.10;;
50815;SDS011;39717;47.324;8.788;2022-08-26T09:22:36;6.20;;;5.70;;
50815;SDS011;39717;47.324;8.788;2022-08-26T09:25:04;7.17;;;6.33;;
50815;SDS011;39717;47.324;8.788;2022-08-26T09:27:47;10.53;;;5.93;;
50815;SDS011;39717;47.324;8.788;2022-08-26T09:30:24;7.80;;;5.77;;
50815;SDS011;39717;47.324;8.788;2022-08-26T09:35:30;6.47;;;5.93;;
50815;SDS011;39717;47.324;8.788;2022-08-26T09:37:57;7.33;;;6.63;;
50815;SDS011;39717;47.324;8.788;2022-08-26T09:45:50;7.07;;;6.10;;
50815;SDS011;39717;47.324;8.788;2022-08-26T09:48:38;7.60;;;6.13;;
50815;SDS011;39717;47.324;8.788;2022-08-26T09:53:51;8.40;;;6.53;;
50815;SDS011;39717;47.324;8.788;2022-08-26T09:58:50;8.87;;;6.87;;
50815;SDS011;39717;47.324;8.788;2022-08-26T10:03:52;8.17;;;6.53;;
50815;SDS011;39717;47.324;8.788;2022-08-26T10:06:28;9.13;;;6.83;;
50815;SDS011;39717;47.324;8.788;2022-08-26T10:08:56;6.70;;;6.10;;
50815;SDS011;39717;47.324;8.788;2022-08-26T10:11:31;6.90;;;6.37;;
50815;SDS011;39717;47.324;8.788;2022-08-26T10:14:01;8.60;;;6.97;;
50815;SDS011;39717;47.324;8.788;2022-08-26T10:21:25;6.77;;;6.13;;
50815;SDS011;39717;47.324;8.788;2022-08-26T10:23:54;7.97;;;7.27;;
50815;SDS011;39717;47.324;8.788;2022-08-26T10:26:24;8.80;;;6.90;;
50815;SDS011;39717;47.324;8.788;2022-08-26T10:33:56;7.23;;;6.60;;
50815;SDS011;39717;47.324;8.788;2022-08-26T10:36:23;8.17;;;7.40;;
50815;SDS011;39717;47.324;8.788;2022-08-26T10:40:11;7.03;;;6.30;;
50815;SDS011;39717;47.324;8.788;2022-08-26T10:42:20;7.83;;;6.60;;
50815;SDS011;39717;47.324;8.788;2022-08-26T10:44:47;7.40;;;6.70;;
50815;SDS011;39717;47.324;8.788;2022-08-26T10:47:24;6.13;;;5.60;;
50815;SDS011;39717;47.324;8.788;2022-08-26T10:49:52;8.33;;;6.20;;
50815;SDS011;39717;47.324;8.788;2022-08-26T10:53:21;7.17;;;6.17;;
50815;SDS011;39717;47.324;8.788;2022-08-26T10:55:31;6.63;;;6.03;;
50815;SDS011;39717;47.324;8.788;2022-08-26T10:58:02;8.83;;;5.67;;
50815;SDS011;39717;47.324;8.788;2022-08-26T11:00:41;7.00;;;6.30;;
50815;SDS011;39717;47.324;8.788;2022-08-26T11:06:21;7.17;;;6.47;;
50815;SDS011;39717;47.324;8.788;2022-08-26T11:08:52;6.60;;;6.00;;
50815;SDS011;39717;47.324;8.788;2022-08-26T11:14:06;6.43;;;5.83;;
50815;SDS011;39717;47.324;8.788;2022-08-26T11:16:43;6.93;;;6.33;;
50815;SDS011;39717;47.324;8.788;2022-08-26T11:19:56;8.13;;;6.47;;
50815;SDS011;39717;47.324;8.788;2022-08-26T11:22:02;6.63;;;5.95;;
50815;SDS011;39717;47.324;8.788;2022-08-26T11:29:56;5.80;;;5.30;;
50815;SDS011;39717;47.324;8.788;2022-08-26T11:32:24;5.40;;;4.95;;
50815;SDS011;39717;47.324;8.788;2022-08-26T11:34:52;7.07;;;5.85;;
50815;SDS011;39717;47.324;8.788;2022-08-26T11:37:19;6.65;;;5.40;;
50815;SDS011;39717;47.324;8.788;2022-08-26T11:39:51;6.15;;;5.60;;
50815;SDS011;39717;47.324;8.788;2022-08-26T11:42:23;5.50;;;5.10;;
50815;SDS011;39717;47.324;8.788;2022-08-26T11:44:52;5.43;;;4.97;;
50815;SDS011;39717;47.324;8.788;2022-08-26T11:47:27;6.32;;;5.20;;
50815;SDS011;39717;47.324;8.788;2022-08-26T11:50:07;5.57;;;5.07;;
50815;SDS011;39717;47.324;8.788;2022-08-26T11:52:34;5.80;;;5.10;;
50815;SDS011;39717;47.324;8.788;2022-08-26T11:55:02;5.65;;;5.18;;
50815;SDS011;39717;47.324;8.788;2022-08-26T11:57:29;5.18;;;4.78;;
50815;SDS011;39717;47.324;8.788;2022-08-26T11:59:58;5.30;;;4.80;;
50815;SDS011;39717;47.324;8.788;2022-08-26T12:02:25;5.47;;;5.00;;
50815;SDS011;39717;47.324;8.788;2022-08-26T12:04:52;5.67;;;4.60;;
50815;SDS011;39717;47.324;8.788;2022-08-26T12:07:23;5.13;;;4.73;;
50815;SDS011;39717;47.324;8.788;2022-08-26T12:09:56;6.33;;;4.77;;
50815;SDS011;39717;47.324;8.788;2022-08-26T12:12:24;5.27;;;4.87;;
50815;SDS011;39717;47.324;8.788;2022-08-26T12:15:08;6.03;;;4.40;;
50815;SDS011;39717;47.324;8.788;2022-08-26T12:17:34;5.23;;;4.47;;
50815;SDS011;39717;47.324;8.788;2022-08-26T12:20:01;5.83;;;4.80;;
50815;SDS011;39717;47.324;8.788;2022-08-26T12:22:29;5.03;;;4.60;;
50815;SDS011;39717;47.324;8.788;2022-08-26T12:25:03;6.70;;;4.47;;
50815;SDS011;39717;47.324;8.788;2022-08-26T12:27:31;4.60;;;4.20;;
50815;SDS011;39717;47.324;8.788;2022-08-26T12:30:06;5.23;;;4.30;;
50815;SDS011;39717;47.324;8.788;2022-08-26T12:32:33;5.40;;;4.90;;
50815;SDS011;39717;47.324;8.788;2022-08-26T12:35:01;4.72;;;4.32;;
50815;SDS011;39717;47.324;8.788;2022-08-26T12:37:29;5.10;;;4.70;;
50815;SDS011;39717;47.324;8.788;2022-08-26T12:40:23;5.70;;;4.50;;
50815;SDS011;39717;47.324;8.788;2022-08-26T12:42:43;4.17;;;3.70;;
50815;SDS011;39717;47.324;8.788;2022-08-26T12:45:09;5.07;;;4.57;;
50815;SDS011;39717;47.324;8.788;2022-08-26T12:47:36;4.63;;;4.20;;
50815;SDS011;39717;47.324;8.788;2022-08-26T12:52:34;4.17;;;3.77;;
50815;SDS011;39717;47.324;8.788;2022-08-26T12:55:05;4.13;;;3.67;;
50815;SDS011;39717;47.324;8.788;2022-08-26T12:57:35;4.43;;;3.83;;
50815;SDS011;39717;47.324;8.788;2022-08-26T13:02:46;4.47;;;3.43;;
50815;SDS011;39717;47.324;8.788;2022-08-26T13:05:22;4.10;;;3.73;;
50815;SDS011;39717;47.324;8.788;2022-08-26T13:10:35;4.53;;;4.07;;
50815;SDS011;39717;47.324;8.788;2022-08-26T13:13:01;5.20;;;4.23;;
50815;SDS011;39717;47.324;8.788;2022-08-26T13:15:27;4.47;;;4.07;;
50815;SDS011;39717;47.324;8.788;2022-08-26T13:17:53;4.50;;;3.77;;
50815;SDS011;39717;47.324;8.788;2022-08-26T13:20:20;4.00;;;3.70;;
50815;SDS011;39717;47.324;8.788;2022-08-26T13:22:47;3.70;;;3.40;;
50815;SDS011;39717;47.324;8.788;2022-08-26T13:25:14;4.50;;;3.80;;
50815;SDS011;39717;47.324;8.788;2022-08-26T13:27:40;4.53;;;3.77;;
50815;SDS011;39717;47.324;8.788;2022-08-26T13:30:07;4.13;;;3.73;;
50815;SDS011;39717;47.324;8.788;2022-08-26T13:32:33;5.30;;;4.10;;
50815;SDS011;39717;47.324;8.788;2022-08-26T13:35:00;4.37;;;4.03;;
50815;SDS011;39717;47.324;8.788;2022-08-26T13:37:26;3.23;;;3.00;;
50815;SDS011;39717;47.324;8.788;2022-08-26T13:39:52;4.33;;;3.57;;
50815;SDS011;39717;47.324;8.788;2022-08-26T13:42:19;6.03;;;3.80;;
50815;SDS011;39717;47.324;8.788;2022-08-26T13:44:46;4.30;;;3.90;;
50815;SDS011;39717;47.324;8.788;2022-08-26T13:47:15;4.87;;;3.83;;
50815;SDS011;39717;47.324;8.788;2022-08-26T13:49:42;5.00;;;3.77;;
50815;SDS011;39717;47.324;8.788;2022-08-26T13:52:09;4.80;;;4.10;;
50815;SDS011;39717;47.324;8.788;2022-08-26T13:54:35;5.37;;;4.40;;
50815;SDS011;39717;47.324;8.788;2022-08-26T13:57:01;4.40;;;4.00;;
50815;SDS011;39717;47.324;8.788;2022-08-26T13:59:28;4.88;;;4.38;;
50815;SDS011;39717;47.324;8.788;2022-08-26T14:01:54;4.43;;;3.80;;
50815;SDS011;39717;47.324;8.788;2022-08-26T14:04:22;4.60;;;3.73;;
50815;SDS011;39717;47.324;8.788;2022-08-26T14:06:48;4.07;;;3.73;;
50815;SDS011;39717;47.324;8.788;2022-08-26T14:09:15;4.63;;;4.17;;
50815;SDS011;39717;47.324;8.788;2022-08-26T14:11:41;4.00;;;3.60;;
50815;SDS011;39717;47.324;8.788;2022-08-26T14:14:07;6.47;;;4.30;;
50815;SDS011;39717;47.324;8.788;2022-08-26T14:16:35;4.73;;;3.70;;
50815;SDS011;39717;47.324;8.788;2022-08-26T14:19:02;4.63;;;4.23;;
50815;SDS011;39717;47.324;8.788;2022-08-26T14:21:30;3.93;;;3.63;;
50815;SDS011;39717;47.324;8.788;2022-08-26T14:23:57;4.73;;;3.60;;
50815;SDS011;39717;47.324;8.788;2022-08-26T14:26:23;5.07;;;3.50;;
50815;SDS011;39717;47.324;8.788;2022-08-26T14:28:50;4.73;;;3.83;;
50815;SDS011;39717;47.324;8.788;2022-08-26T14:31:17;6.33;;;3.80;;
50815;SDS011;39717;47.324;8.788;2022-08-26T14:33:44;3.67;;;3.37;;
50815;SDS011;39717;47.324;8.788;2022-08-26T14:36:10;4.10;;;3.73;;
50815;SDS011;39717;47.324;8.788;2022-08-26T14:38:55;3.70;;;3.40;;
50815;SDS011;39717;47.324;8.788;2022-08-26T14:41:24;4.20;;;3.80;;
50815;SDS011;39717;47.324;8.788;2022-08-26T14:43:52;4.03;;;3.63;;
50815;SDS011;39717;47.324;8.788;2022-08-26T14:46:22;4.63;;;3.40;;
50815;SDS011;39717;47.324;8.788;2022-08-26T14:48:53;3.83;;;3.53;;
50815;SDS011;39717;47.324;8.788;2022-08-26T14:51:19;4.28;;;3.30;;
50815;SDS011;39717;47.324;8.788;2022-08-26T14:53:46;3.10;;;2.90;;
50815;SDS011;39717;47.324;8.788;2022-08-26T14:56:32;3.70;;;3.13;;
50815;SDS011;39717;47.324;8.788;2022-08-26T14:58:58;4.05;;;3.00;;
50815;SDS011;39717;47.324;8.788;2022-08-26T15:01:25;2.80;;;2.60;;
50815;SDS011;39717;47.324;8.788;2022-08-26T15:03:51;4.77;;;3.07;;
50815;SDS011;39717;47.324;8.788;2022-08-26T15:06:18;4.43;;;3.00;;
50815;SDS011;39717;47.324;8.788;2022-08-26T15:08:44;3.55;;;3.10;;
50815;SDS011;39717;47.324;8.788;2022-08-26T15:11:10;3.30;;;3.05;;
50815;SDS011;39717;47.324;8.788;2022-08-26T15:13:36;3.25;;;2.95;;
50815;SDS011;39717;47.324;8.788;2022-08-26T15:16:02;4.25;;;3.30;;
50815;SDS011;39717;47.324;8.788;2022-08-26T15:18:28;3.35;;;2.92;;
50815;SDS011;39717;47.324;8.788;2022-08-26T15:20:55;5.05;;;4.40;;
50815;SDS011;39717;47.324;8.788;2022-08-26T15:23:22;3.80;;;3.42;;
50815;SDS011;39717;47.324;8.788;2022-08-26T15:25:48;5.00;;;3.38;;
50815;SDS011;39717;47.324;8.788;2022-08-26T15:28:14;4.82;;;3.58;;
50815;SDS011;39717;47.324;8.788;2022-08-26T15:30:40;3.80;;;3.50;;
50815;SDS011;39717;47.324;8.788;2022-08-26T15:33:07;5.00;;;3.47;;
50815;SDS011;39717;47.324;8.788;2022-08-26T15:35:33;5.57;;;3.60;;
50815;SDS011;39717;47.324;8.788;2022-08-26T15:37:59;7.83;;;3.40;;
50815;SDS011;39717;47.324;8.788;2022-08-26T15:40:25;3.63;;;3.33;;
50815;SDS011;39717;47.324;8.788;2022-08-26T15:42:51;4.63;;;3.40;;
50815;SDS011;39717;47.324;8.788;2022-08-26T15:45:17;4.77;;;4.10;;
50815;SDS011;39717;47.324;8.788;2022-08-26T15:47:44;5.33;;;3.73;;
50815;SDS011;39717;47.324;8.788;2022-08-26T15:50:10;4.30;;;3.73;;
50815;SDS011;39717;47.324;8.788;2022-08-26T15:52:39;6.50;;;4.20;;
50815;SDS011;39717;47.324;8.788;2022-08-26T15:55:06;8.27;;;4.00;;